createdAt,value
2022-09-20T00:00:33.645Z,100518.53
2022-09-20T00:02:35.368Z,100525.03
2022-09-20T00:04:37.305Z,100517.69
2022-09-20T00:06:39.169Z,100520.34
2022-09-20T00:08:41.403Z,100525.63
2022-09-20T00:10:43.480Z,100517.00
2022-09-20T00:12:45.421Z,100521.59
2022-09-20T00:14:47.114Z,100511.00
2022-09-20T00:16:49.014Z,100507.41
2022-09-20T00:18:55.246Z,100503.22
2022-09-20T00:20:56.925Z,100480.97
2022-09-20T00:22:58.692Z,100517.81
2022-09-20T00:25:00.468Z,100518.16
2022-09-20T00:27:03.087Z,100523.91
2022-09-20T00:29:05.503Z,100518.19
2022-09-20T00:31:07.315Z,100520.72
2022-09-20T00:33:09.023Z,100520.72
2022-09-20T00:35:10.949Z,100524.06
2022-09-20T00:37:12.746Z,100525.72
2022-09-20T00:39:15.732Z,100529.31
2022-09-20T00:41:17.474Z,100525.38
2022-09-20T00:43:38.001Z,100519.75
2022-09-20T00:45:39.873Z,100520.28
2022-09-20T00:47:51.486Z,100516.81
2022-09-20T00:49:59.900Z,100524.03
2022-09-20T00:52:02.570Z,100534.03
2022-09-20T00:54:06.445Z,100524.31
2022-09-20T00:56:19.354Z,100513.34
2022-09-20T00:58:23.281Z,100521.53
2022-09-20T01:00:26.825Z,100534.97
2022-09-20T01:02:33.345Z,100536.34
2022-09-20T01:04:38.691Z,100528.72
2022-09-20T01:06:43.298Z,100534.50
2022-09-20T01:08:48.846Z,100531.75
2022-09-20T01:10:51.530Z,100537.72
2022-09-20T01:12:54.287Z,100538.03
2022-09-20T01:14:57.206Z,100536.66
2022-09-20T01:17:04.418Z,100533.28
2022-09-20T01:19:19.671Z,100537.63
2022-09-20T01:21:22.063Z,100544.09
2022-09-20T01:23:41.803Z,100535.09
2022-09-20T01:26:04.727Z,100535.09
2022-09-20T01:28:06.647Z,100539.53
2022-09-20T01:30:14.852Z,100524.25
2022-09-20T01:32:22.733Z,100525.88
2022-09-20T01:34:33.870Z,100523.50
2022-09-20T01:37:04.901Z,100529.00
2022-09-20T01:39:17.260Z,100530.56
2022-09-20T01:41:28.934Z,100537.66
2022-09-20T01:43:55.441Z,100536.44
2022-09-20T01:46:02.879Z,100537.25
2022-09-20T01:48:38.518Z,100531.16
2022-09-20T01:51:21.738Z,100536.44
2022-09-20T01:53:23.423Z,100538.34
2022-09-20T01:55:43.522Z,100543.88
2022-09-20T01:58:12.832Z,100541.66
2022-09-20T02:00:19.924Z,100542.44
2022-09-20T02:02:40.229Z,100541.19
2022-09-20T02:04:45.106Z,100543.81
2022-09-20T02:07:04.387Z,100544.19
2022-09-20T02:09:27.789Z,100550.13
2022-09-20T02:11:37.502Z,100553.47
2022-09-20T02:14:03.574Z,100558.22
2022-09-20T02:16:41.756Z,100559.31
2022-09-20T02:19:11.289Z,100552.69
2022-09-20T02:21:31.651Z,100562.97
2022-09-20T02:23:55.106Z,100561.66
2022-09-20T02:26:11.617Z,100563.84
2022-09-20T02:28:43.171Z,100568.94
2022-09-20T02:31:23.353Z,100565.97
2022-09-20T02:33:47.419Z,100569.75
2022-09-20T02:35:54.908Z,100574.66
2022-09-20T02:38:36.708Z,100570.75
2022-09-20T02:40:52.856Z,100572.56
2022-09-20T02:43:04.029Z,100571.09
2022-09-20T02:45:16.902Z,100568.41
2022-09-20T02:47:25.598Z,100570.28
2022-09-20T02:49:47.001Z,100569.91
2022-09-20T02:52:26.325Z,100568.41
2022-09-20T02:56:39.063Z,100570.38
2022-09-20T02:58:52.597Z,100574.41
2022-09-20T03:01:05.452Z,100572.09
2022-09-20T03:03:47.010Z,100568.91
2022-09-20T03:06:15.202Z,100570.59
2022-09-20T03:08:33.788Z,100567.63
2022-09-20T03:10:53.744Z,100574.31
2022-09-20T03:13:01.157Z,100568.75
2022-09-20T03:15:27.606Z,100567.41
2022-09-20T03:18:10.581Z,100570.16
2022-09-20T03:20:17.948Z,100561.00
2022-09-20T03:22:52.958Z,100571.69
2022-09-20T03:25:19.075Z,100576.84
2022-09-20T03:27:38.798Z,100563.66
2022-09-20T03:30:17.695Z,100562.13
2022-09-20T03:32:47.420Z,100566.81
2022-09-20T03:34:55.271Z,100569.91
2022-09-20T03:37:14.453Z,100569.91
2022-09-20T03:39:31.294Z,100567.81
2022-09-20T03:42:25.389Z,100578.63
2022-09-20T03:44:50.270Z,100576.72
2022-09-20T03:47:07.008Z,100585.44
2022-09-20T03:49:39.753Z,100590.28
2022-09-20T03:52:04.666Z,100585.44
2022-09-20T03:54:45.070Z,100584.34
2022-09-20T03:57:24.412Z,100588.09
2022-09-20T03:59:50.774Z,100587.41
2022-09-20T04:02:22.790Z,100594.91
2022-09-20T04:04:35.163Z,100598.22
2022-09-20T04:06:45.365Z,100595.31
2022-09-20T04:08:55.834Z,100596.44
2022-09-20T04:11:18.941Z,100598.50
2022-09-20T04:13:34.622Z,100600.31
2022-09-20T04:16:01.056Z,100603.94
2022-09-20T04:18:05.772Z,100612.28
2022-09-20T04:20:16.948Z,100618.28
2022-09-20T04:22:22.590Z,100617.41
2022-09-20T04:24:30.229Z,100619.25
2022-09-20T04:26:39.620Z,100623.13
2022-09-20T04:28:51.982Z,100625.63
2022-09-20T04:31:00.502Z,100628.28
2022-09-20T04:33:11.174Z,100630.66
2022-09-20T04:35:21.732Z,100628.28
2022-09-20T04:37:33.607Z,100617.09
2022-09-20T04:39:56.033Z,100633.00
2022-09-20T04:42:18.916Z,100631.88
2022-09-20T04:44:54.296Z,100637.81
2022-09-20T04:47:11.976Z,100638.41
2022-09-20T04:49:43.894Z,100632.41
2022-09-20T04:52:18.885Z,100647.00
2022-09-20T04:55:01.559Z,100641.88
2022-09-20T04:57:38.080Z,100647.72
2022-09-20T05:00:23.082Z,100645.50
2022-09-20T05:02:52.751Z,100644.81
2022-09-20T05:04:57.149Z,100648.19
2022-09-20T05:07:30.556Z,100653.31
2022-09-20T05:09:47.435Z,100653.88
2022-09-20T05:12:17.071Z,100657.25
2022-09-20T05:15:02.882Z,100648.78
2022-09-20T05:17:07.310Z,100658.69
2022-09-20T05:19:16.883Z,100662.88
2022-09-20T05:21:37.356Z,100666.91
2022-09-20T05:24:03.919Z,100661.38
2022-09-20T05:26:34.141Z,100671.13
2022-09-20T05:28:47.137Z,100677.63
2022-09-20T05:30:59.542Z,100677.38
2022-09-20T05:33:07.998Z,100670.41
2022-09-20T05:35:15.843Z,100676.50
2022-09-20T05:37:33.224Z,100682.66
2022-09-20T05:40:03.649Z,100681.00
2022-09-20T05:42:16.126Z,100686.03
2022-09-20T05:44:20.673Z,100678.41
2022-09-20T05:46:59.526Z,100688.06
2022-09-20T05:49:11.504Z,100678.44
2022-09-20T05:51:37.444Z,100688.72
2022-09-20T05:53:51.229Z,100687.78
2022-09-20T05:56:14.688Z,100688.47
2022-09-20T05:58:23.872Z,100687.09
2022-09-20T06:00:32.654Z,100684.19
2022-09-20T06:03:02.302Z,100686.28
2022-09-20T06:05:19.232Z,100699.75
2022-09-20T06:07:25.409Z,100704.06
2022-09-20T06:09:30.294Z,100700.63
2022-09-20T06:11:45.595Z,100704.25
2022-09-20T06:14:03.960Z,100690.28
2022-09-20T06:16:10.192Z,100702.97
2022-09-20T06:18:23.778Z,100710.66
2022-09-20T06:20:50.720Z,100708.25
2022-09-20T06:22:56.435Z,100708.41
2022-09-20T06:25:09.921Z,100709.69
2022-09-20T06:27:18.937Z,100710.81
2022-09-20T06:29:29.583Z,100705.09
2022-09-20T06:31:31.276Z,100713.72
2022-09-20T06:33:33.083Z,100716.38
2022-09-20T06:35:53.822Z,100705.66
2022-09-20T06:38:27.490Z,100716.94
2022-09-20T06:40:46.592Z,100723.47
2022-09-20T06:42:48.403Z,100727.69
2022-09-20T06:44:50.105Z,100723.50
2022-09-20T06:46:52.118Z,100724.19
2022-09-20T06:48:53.975Z,100730.06
2022-09-20T06:50:56.200Z,100701.75
2022-09-20T06:52:58.003Z,100738.84
2022-09-20T06:55:00.091Z,100738.41
2022-09-20T06:57:06.234Z,100742.19
2022-09-20T06:59:08.013Z,100733.81
2022-09-20T07:01:10.113Z,100746.91
2022-09-20T07:03:11.864Z,100739.66
2022-09-20T07:05:18.546Z,100750.50
2022-09-20T07:07:20.353Z,100755.56
2022-09-20T07:09:22.149Z,100755.41
2022-09-20T07:11:24.177Z,100747.31
2022-09-20T07:13:25.994Z,100749.97
2022-09-20T07:15:29.130Z,100749.00
2022-09-20T07:17:30.881Z,100752.34
2022-09-20T07:19:32.763Z,100755.13
2022-09-20T07:21:34.769Z,100752.34
2022-09-20T07:23:36.506Z,100756.13
2022-09-20T07:25:38.466Z,100758.19
2022-09-20T07:27:40.228Z,100751.78
2022-09-20T07:29:41.988Z,100757.94
2022-09-20T07:31:43.884Z,100755.09
2022-09-20T07:33:45.938Z,100761.81
2022-09-20T07:35:52.756Z,100762.22
2022-09-20T07:37:58.724Z,100762.50
2022-09-20T07:40:00.591Z,100766.66
2022-09-20T07:42:02.367Z,100763.72
2022-09-20T07:44:04.345Z,100771.13
2022-09-20T07:46:06.450Z,100771.69
2022-09-20T07:48:08.227Z,100774.16
2022-09-20T07:50:10.015Z,100778.78
2022-09-20T07:52:11.742Z,100785.00
2022-09-20T07:54:13.446Z,100783.16
2022-09-20T07:56:16.795Z,100786.88
2022-09-20T07:58:18.505Z,100784.03
2022-09-20T08:00:20.325Z,100793.91
2022-09-20T08:02:22.768Z,100790.31
2022-09-20T08:04:24.571Z,100777.03
2022-09-20T08:06:26.292Z,100794.69
2022-09-20T08:08:29.090Z,100794.25
2022-09-20T08:10:30.829Z,100797.88
2022-09-20T08:14:54.629Z,100790.56
2022-09-20T08:16:56.398Z,100798.94
2022-09-20T08:19:00.870Z,100789.59
2022-09-20T08:21:07.256Z,100801.84
2022-09-20T08:23:22.990Z,100797.38
2022-09-20T08:25:25.687Z,100801.81
2022-09-20T08:27:27.848Z,100802.41
2022-09-20T08:29:29.629Z,100798.38
2022-09-20T08:31:33.219Z,100798.38
2022-09-20T08:33:36.078Z,100800.25
2022-09-20T08:35:38.700Z,100804.91
2022-09-20T08:37:41.498Z,100803.44
2022-09-20T08:39:59.135Z,100805.66
2022-09-20T08:42:33.960Z,100808.72
2022-09-20T08:45:01.522Z,100805.03
2022-09-20T08:47:19.428Z,100809.66
2022-09-20T08:49:28.890Z,100805.09
2022-09-20T08:51:34.713Z,100811.16
2022-09-20T08:53:36.989Z,100810.31
2022-09-20T08:55:40.852Z,100814.56
2022-09-20T08:57:43.478Z,100809.81
2022-09-20T08:59:45.366Z,100806.59
2022-09-20T09:01:48.759Z,100816.06
2022-09-20T09:04:02.374Z,100812.47
2022-09-20T09:06:06.529Z,100813.94
2022-09-20T09:08:28.540Z,100814.28
2022-09-20T09:10:43.239Z,100806.81
2022-09-20T09:12:48.764Z,100813.28
2022-09-20T09:14:53.051Z,100814.44
2022-09-20T09:16:54.915Z,100812.34
2022-09-20T09:18:56.715Z,100799.56
2022-09-20T09:20:58.431Z,100801.00
2022-09-20T09:23:01.755Z,100813.47
2022-09-20T09:25:28.842Z,100818.28
2022-09-20T09:27:30.557Z,100812.47
2022-09-20T09:29:34.902Z,100808.28
2022-09-20T09:31:37.506Z,100818.53
2022-09-20T09:33:44.102Z,100815.81
2022-09-20T09:35:58.427Z,100813.47
2022-09-20T09:38:02.214Z,100828.63
2022-09-20T09:40:19.111Z,100817.97
2022-09-20T09:42:22.145Z,100820.50
2022-09-20T09:44:27.911Z,100820.44
2022-09-20T09:46:35.847Z,100827.25
2022-09-20T09:48:39.418Z,100827.59
2022-09-20T09:50:42.069Z,100822.13
2022-09-20T09:52:57.803Z,100828.94
2022-09-20T09:55:04.870Z,100821.81
2022-09-20T09:57:28.426Z,100826.97
2022-09-20T09:59:30.063Z,100826.63
2022-09-20T10:01:48.094Z,100825.13
2022-09-20T10:04:14.411Z,100831.91
2022-09-20T10:06:27.122Z,100831.28
2022-09-20T10:08:52.426Z,100829.97
2022-09-20T10:10:57.205Z,100834.97
2022-09-20T10:13:17.552Z,100825.16
2022-09-20T10:15:50.937Z,100831.31
2022-09-20T10:18:17.434Z,100831.66
2022-09-20T10:20:22.223Z,100830.31
2022-09-20T10:23:26.480Z,100827.50
2022-09-20T10:25:31.568Z,100832.31
2022-09-20T10:28:11.646Z,100833.63
2022-09-20T10:30:19.792Z,100831.97
2022-09-20T10:32:27.943Z,100827.13
2022-09-20T10:35:04.727Z,100814.69
2022-09-20T10:37:16.209Z,100824.53
2022-09-20T10:39:39.127Z,100825.06
2022-09-20T10:42:02.634Z,100833.13
2022-09-20T10:44:10.464Z,100839.06
2022-09-20T10:46:33.014Z,100832.66
2022-09-20T10:48:51.678Z,100832.66
2022-09-20T10:50:59.323Z,100831.66
2022-09-20T10:53:11.659Z,100830.66
2022-09-20T10:55:40.745Z,100826.53
2022-09-20T10:58:04.797Z,100826.84
2022-09-20T11:00:44.799Z,100824.72
2022-09-20T11:03:40.193Z,100822.03
2022-09-20T11:06:35.935Z,100821.63
2022-09-20T11:08:40.907Z,100822.19
2022-09-20T11:10:45.782Z,100813.28
2022-09-20T11:12:56.939Z,100816.78
2022-09-20T11:15:29.119Z,100802.81
2022-09-20T11:17:36.292Z,100816.59
2022-09-20T11:19:50.956Z,100809.88
2022-09-20T11:21:58.448Z,100816.09
2022-09-20T11:24:26.479Z,100803.97
2022-09-20T11:26:52.053Z,100803.72
2022-09-20T11:29:17.467Z,100809.13
2022-09-20T11:31:28.142Z,100797.78
2022-09-20T11:33:41.538Z,100809.66
2022-09-20T11:35:49.279Z,100808.69
2022-09-20T11:38:15.218Z,100813.75
2022-09-20T11:40:28.454Z,100818.78
2022-09-20T11:42:40.633Z,100818.91
2022-09-20T11:44:42.897Z,100820.63
2022-09-20T11:46:52.929Z,100816.16
2022-09-20T11:49:00.029Z,100821.03
2022-09-20T11:51:10.269Z,100819.72
2022-09-20T11:53:31.140Z,100817.63
2022-09-20T11:55:35.007Z,100815.69
2022-09-20T11:57:38.172Z,100826.19
2022-09-20T11:59:42.530Z,100817.56
2022-09-20T12:01:45.515Z,100817.88
2022-09-20T12:04:04.080Z,100821.44
2022-09-20T12:06:36.103Z,100822.25
2022-09-20T12:08:40.694Z,100816.31
2022-09-20T12:10:42.544Z,100810.34
2022-09-20T12:12:48.108Z,100820.16
2022-09-20T12:14:57.596Z,100814.44
2022-09-20T12:16:59.335Z,100816.69
2022-09-20T12:19:04.578Z,100814.63
2022-09-20T12:21:07.657Z,100809.00
2022-09-20T12:23:40.442Z,100809.13
2022-09-20T12:26:04.081Z,100797.44
2022-09-20T12:28:14.978Z,100806.69
2022-09-20T12:30:19.981Z,100811.53
2022-09-20T12:32:39.739Z,100802.16
2022-09-20T12:34:41.491Z,100787.22
2022-09-20T12:37:05.974Z,100798.75
2022-09-20T12:39:10.790Z,100798.22
2022-09-20T12:41:27.536Z,100801.63
2022-09-20T12:43:33.526Z,100795.16
2022-09-20T12:45:35.808Z,100796.13
2022-09-20T12:47:38.393Z,100805.38
2022-09-20T12:49:41.953Z,100800.81
2022-09-20T12:51:51.763Z,100804.19
2022-09-20T12:54:09.055Z,100807.75
2022-09-20T12:56:20.338Z,100802.84
2022-09-20T12:58:53.733Z,100811.63
2022-09-20T13:00:55.833Z,100802.94
2022-09-20T13:03:00.091Z,100808.06
2022-09-20T13:05:02.034Z,100814.97
2022-09-20T13:07:43.554Z,100803.16
2022-09-20T13:09:47.881Z,100815.53
2022-09-20T13:11:56.881Z,100807.94
2022-09-20T13:13:59.368Z,100812.25
2022-09-20T13:16:02.446Z,100804.31
2022-09-20T13:18:05.815Z,100812.03
2022-09-20T13:20:20.977Z,100820.47
2022-09-20T13:22:27.102Z,100808.81
2022-09-20T13:24:37.097Z,100816.75
2022-09-20T13:26:45.593Z,100819.69
2022-09-20T13:28:54.168Z,100811.94
2022-09-20T13:31:20.814Z,100821.03
2022-09-20T13:33:25.078Z,100815.16
2022-09-20T13:35:28.489Z,100826.50
2022-09-20T13:37:30.300Z,100820.72
2022-09-20T13:39:36.117Z,100813.50
2022-09-20T13:41:40.540Z,100818.34
2022-09-20T13:43:46.672Z,100826.06
2022-09-20T13:45:55.137Z,100830.56
2022-09-20T13:47:59.785Z,100820.88
2022-09-20T13:50:31.048Z,100827.88
2022-09-20T13:52:32.763Z,100834.50
2022-09-20T13:54:34.471Z,100833.81
2022-09-20T13:56:36.232Z,100835.38
2022-09-20T13:58:38.516Z,100825.84
2022-09-20T14:00:46.808Z,100824.66
2022-09-20T14:02:49.648Z,100826.97
2022-09-20T14:04:54.633Z,100820.81
2022-09-20T14:06:58.903Z,100822.66
2022-09-20T14:09:08.403Z,100825.97
2022-09-20T14:11:26.145Z,100827.88
2022-09-20T14:13:31.953Z,100828.06
2022-09-20T14:15:38.861Z,100829.41
2022-09-20T14:17:40.638Z,100834.97
2022-09-20T14:19:46.575Z,100830.03
2022-09-20T14:21:49.490Z,100827.25
2022-09-20T14:24:03.412Z,100837.09
2022-09-20T14:26:22.659Z,100835.97
2022-09-20T14:28:28.864Z,100838.16
2022-09-20T14:30:34.383Z,100834.53
2022-09-20T14:32:38.913Z,100835.03
2022-09-20T14:34:41.729Z,100834.06
2022-09-20T14:36:43.958Z,100827.19
2022-09-20T14:38:48.932Z,100837.78
2022-09-20T14:40:51.387Z,100833.22
2022-09-20T14:42:58.962Z,100825.38
2022-09-20T14:45:02.822Z,100834.19
2022-09-20T14:47:15.572Z,100832.34
2022-09-20T14:49:26.493Z,100824.97
2022-09-20T14:51:28.362Z,100832.72
2022-09-20T14:53:30.198Z,100830.81
2022-09-20T14:55:37.356Z,100835.09
2022-09-20T14:57:41.058Z,100829.78
2022-09-20T14:59:43.494Z,100833.69
2022-09-20T15:02:03.250Z,100838.34
2022-09-20T15:04:17.524Z,100837.09
2022-09-20T15:06:19.582Z,100835.16
2022-09-20T15:08:21.464Z,100832.72
2022-09-20T15:10:23.858Z,100831.38
2022-09-20T15:12:25.714Z,100833.88
2022-09-20T15:14:27.613Z,100831.94
2022-09-20T15:16:29.500Z,100834.06
2022-09-20T15:18:37.296Z,100833.00
2022-09-20T15:20:38.991Z,100800.47
2022-09-20T15:22:41.071Z,100831.06
2022-09-20T15:24:43.518Z,100839.53
2022-09-20T15:26:45.767Z,100838.53
2022-09-20T15:28:48.589Z,100875.06
2022-09-20T15:30:51.688Z,100864.56
2022-09-20T15:32:53.393Z,100871.31
2022-09-20T15:34:55.321Z,100882.34
2022-09-20T15:36:57.135Z,100876.50
2022-09-20T15:38:59.220Z,100891.06
2022-09-20T15:41:02.796Z,100887.53
2022-09-20T15:43:04.554Z,100888.84
2022-09-20T15:45:08.746Z,100891.34
2022-09-20T15:47:14.095Z,100898.00
2022-09-20T15:49:17.924Z,100896.84
2022-09-20T15:51:19.905Z,100901.53
2022-09-20T15:53:21.843Z,100902.34
2022-09-20T15:55:23.625Z,100903.69
2022-09-20T15:57:25.808Z,100899.31
2022-09-20T15:59:27.602Z,100908.44
2022-09-20T16:01:32.999Z,100914.63
2022-09-20T16:03:36.000Z,100913.63
2022-09-20T16:05:37.742Z,100908.75
2022-09-20T16:07:39.572Z,100916.28
2022-09-20T16:09:41.306Z,100916.09
2022-09-20T16:11:43.056Z,100917.25
2022-09-20T16:13:44.873Z,100922.41
2022-09-20T16:15:54.082Z,100918.25
2022-09-20T16:17:55.824Z,100925.06
2022-09-20T16:19:57.569Z,100920.38
2022-09-20T16:21:59.527Z,100927.56
2022-09-20T16:24:01.647Z,100925.16
2022-09-20T16:26:03.715Z,100932.28
2022-09-20T16:28:06.661Z,100927.16
2022-09-20T16:30:09.034Z,100925.59
2022-09-20T16:32:10.793Z,100938.81
2022-09-20T16:34:20.422Z,100930.47
2022-09-20T16:36:25.459Z,100946.53
2022-09-20T16:38:29.136Z,100941.00
2022-09-20T16:40:30.985Z,100941.97
2022-09-20T16:42:32.765Z,100943.63
2022-09-20T16:44:39.357Z,100952.91
2022-09-20T16:46:41.307Z,100955.81
2022-09-20T16:48:43.058Z,100961.56
2022-09-20T16:50:54.387Z,100960.94
2022-09-20T16:52:56.129Z,100971.47
2022-09-20T16:54:57.874Z,100970.16
2022-09-20T16:56:59.847Z,100966.28
2022-09-20T16:59:02.558Z,100964.59
2022-09-20T17:01:05.488Z,100970.28
2022-09-20T17:03:08.330Z,100982.25
2022-09-20T17:05:10.018Z,100984.81
2022-09-20T17:07:11.726Z,100980.53
2022-09-20T17:09:15.333Z,100991.84
2022-09-20T17:11:19.583Z,100983.34
2022-09-20T17:13:21.321Z,100981.56
2022-09-20T17:15:23.317Z,100993.31
2022-09-20T17:17:25.014Z,100993.84
2022-09-20T17:19:26.982Z,100992.59
2022-09-20T17:21:30.495Z,101002.53
2022-09-20T17:23:32.789Z,101007.38
2022-09-20T17:25:34.766Z,101006.84
2022-09-20T17:27:36.547Z,101008.44
2022-09-20T17:29:38.238Z,101014.31
2022-09-20T17:31:43.337Z,101019.22
2022-09-20T17:33:45.513Z,101021.63
2022-09-20T17:35:51.563Z,101018.41
2022-09-20T17:37:53.711Z,101022.75
2022-09-20T17:39:55.556Z,101028.31
2022-09-20T17:41:57.317Z,101030.31
2022-09-20T17:44:00.427Z,101011.88
2022-09-20T17:46:12.228Z,101028.63
2022-09-20T17:48:15.061Z,101035.31
2022-09-20T17:50:16.802Z,101037.44
2022-09-20T17:52:18.661Z,101041.06
2022-09-20T17:54:21.752Z,101038.56
2022-09-20T17:56:24.746Z,101042.19
2022-09-20T17:58:27.206Z,101045.81
2022-09-20T18:00:29.160Z,101049.59
2022-09-20T18:02:30.983Z,101054.09
2022-09-20T18:04:32.893Z,101052.69
2022-09-20T18:06:45.258Z,101056.59
2022-09-20T18:08:52.051Z,101061.06
2022-09-20T18:10:57.877Z,101054.66
2022-09-20T18:12:59.711Z,101055.19
2022-09-20T18:15:01.474Z,101050.59
2022-09-20T18:17:03.247Z,101063.72
2022-09-20T18:19:08.796Z,101071.13
2022-09-20T18:21:18.595Z,101077.53
2022-09-20T18:23:20.348Z,101069.16
2022-09-20T18:25:22.173Z,101070.56
2022-09-20T18:27:24.616Z,101074.47
2022-09-20T18:29:26.413Z,101075.88
2022-09-20T18:31:51.340Z,101074.88
2022-09-20T18:33:54.930Z,101082.44
2022-09-20T18:36:01.734Z,101086.31
2022-09-20T18:38:03.424Z,101079.63
2022-09-20T18:40:05.663Z,101085.06
2022-09-20T18:42:07.583Z,101068.88
2022-09-20T18:44:11.264Z,101097.34
2022-09-20T18:46:13.191Z,101088.84
2022-09-20T18:48:14.981Z,101094.09
2022-09-20T18:50:16.689Z,101100.81
2022-09-20T18:52:18.574Z,101092.38
2022-09-20T18:54:20.438Z,101085.13
2022-09-20T18:56:23.670Z,101096.22
2022-09-20T18:58:25.597Z,101096.69
2022-09-20T19:00:27.563Z,101100.19
2022-09-20T19:02:47.461Z,101104.22
2022-09-20T19:05:18.066Z,101100.44
2022-09-20T19:07:19.786Z,101101.41
2022-09-20T19:09:37.750Z,101110.34
2022-09-20T19:11:48.968Z,101105.28
2022-09-20T19:14:07.910Z,101105.03
2022-09-20T19:16:19.299Z,101098.13
2022-09-20T19:18:23.738Z,101108.59
2022-09-20T19:20:45.942Z,101119.22
2022-09-20T19:23:26.484Z,101119.34
2022-09-20T19:25:48.597Z,101126.13
2022-09-20T19:27:50.865Z,101121.22
2022-09-20T19:29:53.041Z,101125.47
2022-09-20T19:31:58.797Z,101126.44
2022-09-20T19:34:05.232Z,101132.97
2022-09-20T19:36:08.104Z,101132.00
2022-09-20T19:38:17.988Z,101070.28
2022-09-20T19:40:40.149Z,101126.63
2022-09-20T19:43:11.079Z,101134.81
2022-09-20T19:45:21.802Z,101138.19
2022-09-20T19:47:48.967Z,101139.69
2022-09-20T19:50:13.110Z,101139.50
2022-09-20T19:52:15.341Z,101142.72
2022-09-20T19:54:17.669Z,101143.13
2022-09-20T19:56:24.183Z,101142.22
2022-09-20T19:58:26.205Z,101148.31
2022-09-20T20:00:28.156Z,101153.06
2022-09-20T20:02:30.203Z,101156.97
2022-09-20T20:04:32.340Z,101151.66
2022-09-20T20:07:16.464Z,101150.41
2022-09-20T20:09:50.480Z,101154.06
2022-09-20T20:12:05.557Z,101155.28
2022-09-20T20:16:35.785Z,101155.69
2022-09-20T20:21:06.888Z,101153.94
2022-09-20T20:25:26.685Z,101159.28
2022-09-20T20:27:28.452Z,101162.91
2022-09-20T20:29:30.147Z,101167.94
2022-09-20T20:31:32.024Z,101171.34
2022-09-20T20:33:33.737Z,101166.91
2022-09-20T20:35:35.424Z,101172.72
2022-09-20T20:37:37.638Z,101168.06
2022-09-20T20:39:39.494Z,101171.66
2022-09-20T20:41:41.439Z,101169.47
2022-09-20T20:43:44.354Z,101174.88
2022-09-20T20:45:50.512Z,101175.94
2022-09-20T20:47:56.540Z,101180.06
2022-09-20T20:49:58.548Z,101177.88
2022-09-20T20:52:00.319Z,101178.78
2022-09-20T20:54:03.474Z,101186.78
2022-09-20T20:56:10.997Z,101180.34
2022-09-20T20:58:12.738Z,101188.13
2022-09-20T21:00:15.130Z,101180.66
2022-09-20T21:02:16.932Z,101180.06
2022-09-20T21:04:18.804Z,101181.97
2022-09-20T21:06:22.183Z,101179.34
2022-09-20T21:08:24.154Z,101179.09
2022-09-20T21:10:26.164Z,101190.53
2022-09-20T21:12:27.874Z,101185.09
2022-09-20T21:14:29.862Z,101185.81
2022-09-20T21:16:34.173Z,101181.50
2022-09-20T21:18:35.994Z,101191.56
2022-09-20T21:20:38.714Z,101182.81
2022-09-20T21:22:40.470Z,101189.44
2022-09-20T21:24:42.219Z,101192.94
2022-09-20T21:26:45.007Z,101186.72
2022-09-20T21:28:51.647Z,101175.78
2022-09-20T21:30:59.507Z,101189.22
2022-09-20T21:33:04.651Z,101186.66
2022-09-20T21:37:08.722Z,101173.28
2022-09-20T21:39:10.692Z,101195.69
2022-09-20T21:41:17.839Z,101194.63
2022-09-20T21:43:19.657Z,101188.97
2022-09-20T21:45:21.450Z,101190.97
2022-09-20T21:47:23.351Z,101186.78
2022-09-20T21:49:25.177Z,101194.47
2022-09-20T21:51:28.397Z,101187.53
2022-09-20T21:53:30.310Z,101191.59
2022-09-20T21:55:31.995Z,101191.59
2022-09-20T21:57:33.807Z,101190.06
2022-09-20T21:59:35.521Z,101196.22
2022-09-20T22:01:39.697Z,101199.31
2022-09-20T22:03:47.068Z,101201.91
2022-09-20T22:05:48.754Z,101201.56
2022-09-20T22:07:50.625Z,101196.53
2022-09-20T22:09:52.377Z,101208.94
2022-09-20T22:11:54.062Z,101188.75
2022-09-20T22:13:58.182Z,101197.84
2022-09-20T22:16:05.444Z,101202.78
2022-09-20T22:18:07.182Z,101207.47
2022-09-20T22:20:09.610Z,101205.81
2022-09-20T22:22:11.397Z,101203.63
2022-09-20T22:24:15.219Z,101204.84
2022-09-20T22:26:19.782Z,101211.47
2022-09-20T22:28:21.613Z,101207.28
2022-09-20T22:30:23.339Z,101208.72
2022-09-20T22:32:25.093Z,101196.69
2022-09-20T22:34:26.877Z,101207.16
2022-09-20T22:36:31.301Z,101207.88
2022-09-20T22:38:33.269Z,101205.84
2022-09-20T22:40:35.298Z,101205.59
2022-09-20T22:42:37.016Z,101214.84
2022-09-20T22:44:38.798Z,101209.78
2022-09-20T22:46:40.593Z,101211.03
2022-09-20T22:48:43.236Z,101209.34
2022-09-20T22:50:45.231Z,101216.22
2022-09-20T22:52:46.983Z,101203.50
2022-09-20T22:54:48.749Z,101212.84
2022-09-20T22:56:50.554Z,101210.53
2022-09-20T22:58:54.873Z,101211.78
2022-09-20T23:00:56.606Z,101210.88
2022-09-20T23:02:58.929Z,101206.69
2022-09-20T23:05:00.783Z,101212.00
2022-09-20T23:07:02.468Z,101211.06
2022-09-20T23:09:06.552Z,101210.34
2022-09-20T23:13:20.606Z,101208.03
2022-09-20T23:15:22.362Z,101207.06
2022-09-20T23:19:34.224Z,101199.06
2022-09-20T23:21:37.708Z,101211.16
2022-09-20T23:23:39.992Z,101196.63
2022-09-20T23:25:41.860Z,101210.88
2022-09-20T23:27:43.683Z,101213.53
2022-09-20T23:29:45.350Z,101219.53
2022-09-20T23:31:47.631Z,101219.03
2022-09-20T23:33:51.308Z,101218.66
2022-09-20T23:35:52.864Z,101216.88
2022-09-20T23:37:56.268Z,101212.88
2022-09-20T23:39:58.227Z,101220.69
2022-09-20T23:41:59.975Z,101216.84
2022-09-20T23:44:02.077Z,101217.78
2022-09-20T23:46:05.477Z,101221.97
2022-09-20T23:48:07.393Z,101225.25
2022-09-20T23:50:09.223Z,101223.44
2022-09-20T23:52:11.192Z,101223.56
2022-09-20T23:54:12.918Z,101213.63
2022-09-20T23:56:15.643Z,101215.50
2022-09-20T23:58:17.623Z,101221.97
